• Join FlightAware (Why Join?)
  • Login
  • US Flag 
05:59PM EDT


 

Airport Tracker/Info


-or-


 

Live Flight TrackerFlight Track Log ✈ UAL1083 ✈ 02-Oct-2013 ✈ KLGA - KDEN

Flight Track Log - Related Links

Times and Time Zones

All times are in EDT time to prevent confusion due to time zone crossing. See the UAL1083 flight status page for this flight to view local times or setup timezone preferences in your user account.

Time Position Orientation Groundspeed Altitude Reporting Facility
EDT Latitude Longitude Course Direction KTS MPH feet Rate Location/Type
05:44PM 40.8056 -73.9072 261° West 192 221 1,600  Level New York Center
05:45PM 40.8625 -73.9511 330° Northwest 227 261 3,900 2,760 Climbing New York Center
05:46PM 40.9111 -74.0083 318° Northwest 257 296 7,200 3,000 Climbing New York Center
05:47PM 40.8376 -74.4596 270° West  Level Estimated
05:47PM 40.9417 -74.1006 294° West 272 313 10,000  Level New York Center
05:48PM 40.8522 -74.6065 270° West  Level Estimated
05:48PM 40.9303 -74.2097 262° West 306 352 11,700  Level New York Center
05:49PM 40.8667 -74.7535 261° West  Level Estimated
05:49PM 40.9144 -74.3186 259° West 335 386 14,500  Level New York Center
05:50PM 40.8936 -74.4603 259° West 351 404 15,000 240 Climbing New York Center
05:51PM 40.8772 -74.5775 260° West 356 410 15,000 420 Level New York Center
05:52PM 40.8656 -74.6867 262° West 356 410 15,900 1,020 Climbing New York Center
05:53PM 40.8461 -74.8281 260° West 369 425 17,100 1,620 Climbing New York Center
05:54PM 40.8269 -74.9614 259° West 369 425 19,200 2,040 Climbing New York Center
05:55PM 40.7867 -75.0906 248° West 369 425 21,200 1,800 Climbing New York Center
05:56PM 40.7464 -75.2250 248° West 380 437 22,800 1,620 Climbing New York Center
05:57PM 40.7033 -75.3672 248° West 398 458 24,500 1,680 Climbing New York Center
05:58PM 40.6603 -75.5067 248° West 413 475 26,200 1,500 Climbing New York Center
05:59PM 40.6147 -75.6564 248° West 425 489 27,600 1,500 Climbing New York Center
06:00PM 40.5669 -75.8033 247° West 436 502 29,200 1,740 Climbing New York Center
06:01PM 40.5197 -75.9308 244° Southwest 436 502 31,100 1,740 Climbing New York Center
06:02PM 40.4758 -76.0750 248° West 436 502 32,700 1,260 Climbing New York Center
06:03PM 40.4269 -76.2294 247° West 430 495 33,700 1,080 Climbing New York Center
06:04PM 40.3808 -76.3703 247° West 425 489 34,900 1,140 Climbing New York Center
06:05PM 40.3367 -76.5111 248° West 425 489 36,000 540 Climbing New York Center
06:06PM 40.3044 -76.6528 253° West 417 480 36,000  Level New York Center
06:07PM 40.2975 -76.7936 266° West 407 468 36,000  Level New York Center
06:08PM 40.2897 -76.9425 266° West 407 468 36,000  Level New York Center
06:09PM 40.2822 -77.0861 266° West 407 468 36,000  Level New York Center
06:10PM 40.2742 -77.2350 266° West 402 463 36,000  Level New York Center
06:12PM 40.2592 -77.5500 267° West 406 467 36,000  Level Cleveland Center
06:13PM 40.2478 -77.7269 265° West 407 468 36,000  Level Cleveland Center
06:14PM 40.2392 -77.8750 266° West 409 471 36,000  Level Cleveland Center
06:16PM 40.2289 -78.0228 265° West 411 473 36,000  Level Cleveland Center
06:17PM 40.2189 -78.1700 265° West 410 472 36,000  Level Cleveland Center
06:18PM 40.2153 -78.3181 268° West 410 472 36,000  Level Cleveland Center
06:19PM 40.2192 -78.4664 272° West 410 472 36,000  Level Cleveland Center
06:20PM 40.2211 -78.6425 271° West 407 468 36,000  Level Cleveland Center
06:21PM 40.2233 -78.7889 271° West 406 467 36,000  Level Cleveland Center
06:22PM 40.2242 -78.9361 270° West 409 471 36,000  Level Cleveland Center
06:23PM 40.2258 -79.0822 271° West 406 467 36,000  Level Cleveland Center
06:24PM 40.2017 -79.2233 257° West 408 470 36,000  Level Cleveland Center
06:25PM 40.1644 -79.3900 254° West 409 471 36,000  Level Cleveland Center
06:26PM 40.1375 -79.5325 256° West 409 471 36,000  Level Cleveland Center
06:27PM 40.1383 -79.6831 270° West 418 481 36,000  Level Cleveland Center
06:28PM 40.1403 -79.8339 271° West 415 478 36,000  Level Cleveland Center
06:29PM 40.1419 -79.9853 271° West 414 476 36,000  Level Cleveland Center
06:30PM 40.1428 -80.1353 270° West 411 473 36,000  Level Cleveland Center
06:31PM 40.1436 -80.2864 270° West 411 473 36,000  Level Cleveland Center
06:32PM 40.1444 -80.4650 270° West 407 468 36,000  Level Cleveland Center
06:33PM 40.1453 -80.6125 270° West 405 466 36,000  Level Cleveland Center
06:34PM 40.1447 -80.7603 270° West 404 465 36,000  Level Cleveland Center
06:35PM 40.1444 -80.9069 270° West 405 466 36,000  Level Cleveland Center
06:36PM 40.1442 -81.0533 270° West 404 465 36,000  Level Cleveland Center
06:37PM 40.1422 -81.2008 269° West 406 467 36,000  Level Cleveland Center
06:38PM 40.1425 -81.3781 270° West 408 470 36,000  Level Cleveland Center
06:39PM 40.1408 -81.5242 269° West 405 466 36,000  Level Cleveland Center
06:40PM 40.1394 -81.6714 269° West 407 468 36,000  Level Cleveland Center
06:41PM 40.1369 -81.8186 269° West 405 466 36,000  Level Cleveland Center
06:42PM 40.1356 -81.9650 269° West 404 465 36,000  Level Cleveland Center
06:43PM 40.1344 -82.1239 270° West 407 468 36,000  Level Cleveland Center
06:44PM 40.1317 -82.2714 269° West 405 466 36,000  Level Cleveland Center
06:46PM 40.1289 -82.4200 269° West 405 466 36,000  Level Cleveland Center
06:47PM 40.1264 -82.5925 269° West 404 465 36,000  Level Cleveland Center
06:48PM 40.1244 -82.7411 269° West 404 465 36,000  Level Cleveland Center
06:49PM 40.1214 -82.8894 269° West 406 467 36,000  Level Cleveland Center
06:50PM 40.1178 -83.0378 268° West 405 466 36,000  Level Cleveland Center
06:51PM 40.1144 -83.1850 268° West 404 465 36,000  Level Cleveland Center
06:52PM 40.1119 -83.3336 269° West 406 467 36,000  Level Cleveland Center
06:52PM 40.1103 -83.4528 269° West 407 468 36,000  Level Chicago Center
06:53PM 40.1092 -83.5608 269° West 411 473 36,000  Level Indianapolis Center
06:54PM 40.1053 -83.7069 268° West 410 472 36,000  Level Indianapolis Center
06:55PM 40.1006 -83.8533 268° West 408 470 36,000  Level Indianapolis Center
06:56PM 40.0961 -84.0286 268° West 406 467 36,000  Level Indianapolis Center
06:57PM 40.0906 -84.1744 267° West 405 466 36,000  Level Indianapolis Center
06:58PM 40.0864 -84.3225 268° West 408 470 36,000  Level Indianapolis Center
06:59PM 40.0817 -84.4689 268° West 408 470 36,000  Level Indianapolis Center
07:00PM 40.0753 -84.6164 267° West 409 471 36,000  Level Indianapolis Center
07:01PM 40.0711 -84.7631 268° West 407 468 36,000  Level Indianapolis Center
07:02PM 40.0661 -84.9181 268° West 407 468 36,000  Level Indianapolis Center
07:04PM 40.0600 -85.0656 267° West 409 471 36,000  Level Indianapolis Center
07:05PM 40.0539 -85.2425 267° West 410 472 36,000  Level Indianapolis Center
07:06PM 40.0475 -85.3906 267° West 411 473 36,000  Level Indianapolis Center
07:07PM 40.0414 -85.5386 267° West 412 474 36,000  Level Indianapolis Center
07:08PM 40.0356 -85.6872 267° West 413 475 36,000  Level Indianapolis Center
07:08PM 40.0303 -85.8053 267° West 411 473 36,000  Level Indianapolis Center
07:09PM 40.0233 -85.9544 267° West 415 478 36,000  Level Indianapolis Center
07:11PM 40.0153 -86.1319 267° West 413 475 36,000  Level Indianapolis Center
07:12PM 40.0086 -86.2808 267° West 417 480 36,000  Level Indianapolis Center
07:13PM 40.0014 -86.4294 266° West 418 481 36,000  Level Indianapolis Center
07:14PM 39.9939 -86.5783 266° West 418 481 36,000  Level Indianapolis Center
07:15PM 39.9842 -86.7575 266° West 418 481 36,000  Level Indianapolis Center
07:16PM 39.9758 -86.9075 266° West 420 483 36,000  Level Indianapolis Center
07:17PM 39.9681 -87.0572 266° West 417 480 36,000  Level Indianapolis Center
07:18PM 39.9589 -87.2053 265° West 414 476 36,000  Level Indianapolis Center
07:19PM 39.9508 -87.3539 266° West 414 476 36,000  Level Indianapolis Center
07:20PM 39.9419 -87.5025 266° West 414 476 36,000  Level Indianapolis Center
07:21PM 39.9308 -87.6800 265° West 412 474 36,000  Level Indianapolis Center
07:22PM 39.9219 -87.8267 266° West 410 472 36,000  Level Indianapolis Center
07:22PM 39.9175 -87.9147 266° West 409 471 36,000  Level Chicago Center
07:24PM 39.9081 -88.0608 265° West 407 468 36,000  Level Chicago Center
07:25PM 39.8981 -88.2269 266° West 410 472 36,000  Level Chicago Center
07:26PM 39.8878 -88.3744 265° West 410 472 36,000  Level Chicago Center
07:27PM 39.8772 -88.5219 265° West 409 471 36,000  Level Chicago Center
07:28PM 39.8669 -88.6711 265° West 412 474 36,000  Level Chicago Center
07:29PM 39.8572 -88.8203 265° West 413 475 36,000  Level Chicago Center
07:30PM 39.8458 -88.9689 264° West 412 474 36,000  Level Chicago Center
07:31PM 39.8294 -89.1842 264° West 415 478 36,000  Level Indianapolis Center
07:32PM 39.8200 -89.3333 265° West 416 479 36,000  Level Indianapolis Center
07:33PM 39.8064 -89.5086 264° West 416 479 36,000  Level Kansas City Center
07:34PM 39.7939 -89.6594 264° West 418 481 36,000  Level Kansas City Center
07:35PM 39.7825 -89.8103 264° West 418 481 36,000  Level Kansas City Center
07:36PM 39.7711 -89.9597 264° West 416 479 36,000  Level Kansas City Center
07:37PM 39.7586 -90.1086 264° West 415 478 36,000  Level Kansas City Center
07:38PM 39.7436 -90.2881 264° West 416 479 36,000  Level Kansas City Center
07:39PM 39.7333 -90.4228 264° West 414 476 36,000  Level Kansas City Center
07:40PM 39.7203 -90.5692 263° West 412 474 36,000  Level Kansas City Center
07:42PM 39.7053 -90.7450 264° West 411 473 36,000  Level Kansas City Center
07:43PM 39.6917 -90.8914 263° West 412 474 36,000  Level Kansas City Center
07:44PM 39.6794 -91.0353 264° West 407 468 36,000  Level Kansas City Center
07:45PM 39.6417 -91.1725 250° West 413 475 36,000  Level Kansas City Center
07:46PM 39.5947 -91.3044 245° Southwest 407 468 36,000  Level Kansas City Center
07:47PM 39.5506 -91.4397 247° West 407 468 36,000  Level Kansas City Center
07:48PM 39.5061 -91.6014 250° West 406 467 36,000  Level Kansas City Center
07:49PM 39.4697 -91.7397 251° West 405 466 36,000  Level Kansas City Center
07:50PM 39.4689 -91.8842 270° West 404 465 36,000  Level Kansas City Center
07:51PM 39.4692 -92.0317 270° West 407 468 36,000  Level Kansas City Center
07:52PM 39.4717 -92.1789 271° West 410 472 36,000  Level Kansas City Center
07:53PM 39.4728 -92.3553 271° West 411 473 36,000 240 Level Kansas City Center
07:54PM 39.4739 -92.5003 271° West 409 471 36,500 720 Climbing Kansas City Center
07:55PM 39.4747 -92.6489 270° West 411 473 37,600 720 Climbing Kansas City Center
07:56PM 39.4750 -92.7950 270° West 410 472 38,000 180 Climbing Kansas City Center
07:57PM 39.4747 -92.9458 270° West 410 472 38,000  Level Kansas City Center
07:58PM 39.4753 -93.0869 270° West 407 468 38,000  Level Kansas City Center
07:59PM 39.4747 -93.2625 270° West 407 468 38,000  Level Kansas City Center
08:00PM 39.4747 -93.4086 270° West 409 471 38,000  Level Kansas City Center
08:01PM 39.4747 -93.5561 270° West 412 474 38,000  Level Kansas City Center
08:02PM 39.4739 -93.7019 270° West 409 471 38,000  Level Kansas City Center
08:03PM 39.4678 -93.8758 267° West 408 470 38,000  Level Kansas City Center
08:04PM 39.4611 -94.0150 266° West 406 467 38,000  Level Kansas City Center
08:05PM 39.4544 -94.1772 267° West 404 465 38,000  Level Kansas City Center
08:06PM 39.4483 -94.3153 267° West 403 464 38,000  Level Kansas City Center
08:07PM 39.4411 -94.4769 267° West 403 464 38,000  Level Kansas City Center
08:08PM 39.4347 -94.6172 267° West 408 470 38,000  Level Kansas City Center
08:10PM 39.4264 -94.7833 266° West 416 479 38,000  Level Kansas City Center
08:11PM 39.4172 -94.9222 265° West 408 470 38,000  Level Kansas City Center
08:12PM 39.4092 -95.0853 266° West 410 472 38,000  Level Kansas City Center
08:13PM 39.4011 -95.2369 266° West 409 471 38,000  Level Kansas City Center
08:14PM 39.3942 -95.3811 266° West 405 466 38,000  Level Kansas City Center
08:15PM 39.3856 -95.5208 265° West 404 465 38,000  Level Kansas City Center
08:16PM 39.3764 -95.6811 266° West 404 465 38,000  Level Kansas City Center
08:17PM 39.3683 -95.8181 266° West 401 461 38,000  Level Kansas City Center
08:18PM 39.3578 -95.9783 265° West 402 463 38,000  Level Kansas City Center
08:19PM 39.3494 -96.1147 266° West 399 459 38,000  Level Kansas City Center
08:20PM 39.3386 -96.2697 265° West 402 463 38,000  Level Kansas City Center
08:21PM 39.3294 -96.4125 265° West 401 461 38,000  Level Kansas City Center
08:22PM 39.3183 -96.5717 265° West 400 460 38,000  Level Kansas City Center
08:23PM 39.3092 -96.7092 265° West 400 460 38,000  Level Kansas City Center
08:24PM 39.2992 -96.8475 265° West 403 464 38,000  Level Kansas City Center
08:25PM 39.2883 -97.0081 265° West 403 464 38,000  Level Kansas City Center
08:26PM 39.2792 -97.1472 265° West 405 466 38,000  Level Kansas City Center
08:27PM 39.2669 -97.3081 264° West 404 465 38,000  Level Kansas City Center
08:28PM 39.2564 -97.4461 264° West 404 465 38,000  Level Kansas City Center
08:29PM 39.2458 -97.5956 265° West 408 470 38,000  Level Kansas City Center
08:30PM 39.2344 -97.7397 264° West 406 467 38,000  Level Kansas City Center
08:31PM 39.2219 -97.9058 265° West 401 461 38,000  Level Kansas City Center
08:32PM 39.2100 -98.0481 264° West 399 459 38,000  Level Kansas City Center
08:33PM 39.1983 -98.1947 264° West 406 467 38,000  Level Kansas City Center
08:34PM 39.1864 -98.3403 264° West 408 470 38,000  Level Kansas City Center
08:35PM 39.1750 -98.4844 264° West 406 467 38,000  Level Kansas City Center
08:36PM 39.1622 -98.6286 264° West 406 467 38,000  Level Kansas City Center
08:37PM 39.1472 -98.8011 264° West 406 467 38,000  Level Kansas City Center
08:38PM 39.1347 -98.9447 264° West 405 466 38,000  Level Kansas City Center
08:39PM 39.1233 -99.0894 264° West 407 468 38,000  Level Kansas City Center
08:41PM 39.1097 -99.2331 263° West 407 468 38,000  Level Kansas City Center
08:42PM 39.0972 -99.3786 264° West 409 471 38,000  Level Kansas City Center
08:43PM 39.0839 -99.5242 263° West 411 473 38,000  Level Kansas City Center
08:44PM 39.0669 -99.7006 263° West 411 473 38,000  Level Kansas City Center
08:45PM 39.0536 -99.8397 263° West 412 474 38,000  Level Kansas City Center
08:46PM 39.0381 -100.0017 263° West 411 473 38,000  Level Kansas City Center
08:47PM 39.0247 -100.1400 263° West 410 472 38,000  Level Kansas City Center
08:48PM 39.0086 -100.3011 263° West 408 470 38,000  Level Kansas City Center
08:49PM 38.9944 -100.4414 263° West 412 474 38,000  Level Kansas City Center
08:50PM 38.9803 -100.5822 263° West 415 478 38,000  Level Kansas City Center
08:51PM 38.9628 -100.7453 262° West 415 478 38,000 -420 Level Kansas City Center
08:52PM 38.9497 -100.8875 263° West 417 480 37,200 -960 Descending Kansas City Center
08:53PM 38.9558 -101.1331 272° West 433 498 35,700 -960 Descending Denver Center
08:54PM 38.9589 -101.2808 272° West 433 498 34,800 -840 Descending Denver Center
08:55PM 38.9614 -101.4619 271° West 452 520 34,000 -420 Descending Denver Center
08:56PM 38.9628 -101.6161 271° West 452 520 34,000  Level Denver Center
08:57PM 38.9661 -101.7947 271° West 449 517 34,000  Level Denver Center
08:58PM 38.9678 -101.9467 271° West 446 513 34,000  Level Denver Center
08:59PM 38.9689 -102.0967 271° West 442 509 34,000  Level Denver Center
09:01PM 38.9711 -102.2731 271° West 443 510 34,000  Level Denver Center
09:02PM 38.9719 -102.4222 270° West 437 503 34,000  Level Denver Center
09:03PM 39.0039 -102.5897 284° West 432 497 34,000 -240 Level Denver Center
09:04PM 39.0428 -102.7475 288° West 434 499 33,600 -720 Descending Denver Center
09:05PM 39.0814 -102.8944 289° West 435 501 32,600 -1,320 Descending Denver Center
09:06PM 39.1183 -103.0400 288° West 431 496 30,900 -1,920 Descending Denver Center
09:07PM 39.1547 -103.1792 289° West 415 478 28,700 -2,160 Descending Denver Center
09:08PM 39.1892 -103.3167 288° West 406 467 26,500 -2,100 Descending Denver Center
09:09PM 39.2228 -103.4486 288° West 392 451 24,400 -2,280 Descending Denver Center
09:10PM 39.2617 -103.6011 288° West 376 433 21,900 -2,220 Descending Denver Center
09:11PM 39.2956 -103.7219 290° West 362 417 19,900 -1,920 Descending Denver Center
09:12PM 39.3464 -103.8292 302° West 352 405 18,000 -1,500 Descending Denver Center
09:13PM 39.3761 -103.9436 289° West 339 390 16,900 -1,320 Descending Denver Center
09:14PM 39.4050 -104.0614 288° West 332 382 15,300 -1,500 Descending Denver Center
09:15PM 39.4372 -104.1850 289° West 335 386 13,800 -1,320 Descending Denver Center
09:16PM 39.4650 -104.2994 287° West 334 384 12,600 -1,260 Descending Denver Center
09:17PM 39.5011 -104.4086 293° West 326 375 11,300 -1,620 Descending Denver Center
09:18PM 39.5733 -104.5150 311° West 301 346 8,700 -1,620 Descending Denver Center
09:19PM 39.6589 -104.5858 327° Northwest 285 328 7,400 -840 Descending Denver Center
09:21PM 39.7158 -104.6319 328° Northwest 237 273 7,000 -420 Descending Denver Center
09:22PM 39.7678 -104.6631 335° Northwest 212 244 6,600 -660 Descending Denver Center
09:23PM 39.8150 -104.6608 North 160 184 5,700 -600 Descending Denver Center
09:24PM 39.8472 -104.6600 North 126 145 5,400 -300 Descending Denver Center